createdAt,value
2022-11-12T00:02:27.332Z,5.10
2022-11-12T00:05:10.447Z,5.10
2022-11-12T00:07:54.852Z,5.10
2022-11-12T00:10:36.997Z,5.10
2022-11-12T00:13:19.198Z,5.00
2022-11-12T00:16:01.675Z,5.00
2022-11-12T00:18:44.103Z,5.00
2022-11-12T00:21:26.490Z,5.00
2022-11-12T00:24:10.235Z,5.00
2022-11-12T00:26:52.369Z,4.90
2022-11-12T00:29:34.942Z,4.90
2022-11-12T00:32:17.062Z,4.90
2022-11-12T00:35:02.434Z,4.80
2022-11-12T00:37:45.059Z,4.80
2022-11-12T00:40:28.852Z,4.80
2022-11-12T00:43:10.900Z,4.80
2022-11-12T00:45:53.244Z,4.80
2022-11-12T00:48:35.754Z,4.80
2022-11-12T00:51:18.038Z,4.70
2022-11-12T00:54:00.020Z,4.70
2022-11-12T00:56:43.476Z,4.70
2022-11-12T00:59:25.674Z,4.70
2022-11-12T01:02:07.766Z,4.60
2022-11-12T01:04:50.007Z,4.60
2022-11-12T01:07:32.274Z,4.60
2022-11-12T01:10:15.496Z,4.50
2022-11-12T01:12:59.163Z,4.50
2022-11-12T01:15:43.393Z,4.50
2022-11-12T01:18:26.440Z,4.50
2022-11-12T01:21:10.000Z,4.50
2022-11-12T01:23:52.587Z,4.50
2022-11-12T01:26:35.553Z,4.50
2022-11-12T01:29:19.302Z,4.50
2022-11-12T01:32:01.546Z,4.50
2022-11-12T01:34:43.602Z,4.40
2022-11-12T01:37:25.943Z,4.40
2022-11-12T01:40:10.063Z,4.40
2022-11-12T01:42:54.326Z,4.40
2022-11-12T01:45:39.689Z,4.40
2022-11-12T01:48:28.594Z,4.40
2022-11-12T01:51:13.463Z,4.40
2022-11-12T01:53:59.755Z,4.30
2022-11-12T01:56:42.960Z,4.30
2022-11-12T01:59:30.766Z,4.30
2022-11-12T02:02:15.045Z,4.30
2022-11-12T02:04:58.918Z,4.30
2022-11-12T02:07:43.884Z,4.30
2022-11-12T02:10:27.267Z,4.30
2022-11-12T02:13:28.603Z,4.30
2022-11-12T02:16:11.994Z,4.30
2022-11-12T02:18:55.534Z,4.30
2022-11-12T02:21:39.526Z,4.20
2022-11-12T02:24:37.994Z,4.20
2022-11-12T02:27:20.756Z,4.20
2022-11-12T02:30:02.895Z,4.20
2022-11-12T02:32:45.543Z,4.20
2022-11-12T02:35:27.507Z,4.20
2022-11-12T02:38:11.651Z,4.20
2022-11-12T02:40:54.223Z,4.20
2022-11-12T02:43:36.415Z,4.20
2022-11-12T02:46:18.559Z,4.30
2022-11-12T02:49:00.917Z,4.20
2022-11-12T02:51:43.422Z,4.30
2022-11-12T02:54:27.090Z,4.30
2022-11-12T02:57:09.364Z,4.30
2022-11-12T02:59:51.413Z,4.30
2022-11-12T03:02:33.711Z,4.30
2022-11-12T03:05:16.924Z,4.30
2022-11-12T03:08:00.143Z,4.30
2022-11-12T03:10:44.154Z,4.30
2022-11-12T03:13:26.067Z,4.30
2022-11-12T03:16:08.373Z,4.30
2022-11-12T03:18:50.916Z,4.30
2022-11-12T03:21:33.131Z,4.30
2022-11-12T03:24:15.616Z,4.30
2022-11-12T03:26:59.397Z,4.20
2022-11-12T03:29:41.454Z,4.30
2022-11-12T03:32:23.374Z,4.30
2022-11-12T03:35:06.153Z,4.20
2022-11-12T03:37:48.477Z,4.20
2022-11-12T03:40:31.482Z,4.20
2022-11-12T03:43:14.980Z,4.20
2022-11-12T03:45:56.866Z,4.10
2022-11-12T03:48:39.034Z,4.10
2022-11-12T03:51:21.364Z,4.10
2022-11-12T03:54:03.588Z,4.00
2022-11-12T03:56:46.087Z,4.00
2022-11-12T03:59:29.858Z,4.00
2022-11-12T04:02:14.627Z,4.00
2022-11-12T04:05:14.682Z,3.90
2022-11-12T04:08:18.774Z,3.90
2022-11-12T04:11:01.362Z,3.90
2022-11-12T04:13:47.501Z,3.90
2022-11-12T04:16:48.565Z,3.80
2022-11-12T04:19:47.653Z,3.80
2022-11-12T04:22:29.845Z,3.80
2022-11-12T04:25:29.580Z,3.80
2022-11-12T04:28:12.091Z,3.80
2022-11-12T04:30:53.230Z,3.70
2022-11-12T04:33:37.184Z,3.60
2022-11-12T04:36:19.471Z,3.70
2022-11-12T04:39:01.505Z,3.60
2022-11-12T04:42:00.784Z,3.60
2022-11-12T04:45:01.445Z,3.60
2022-11-12T04:47:44.412Z,3.60
2022-11-12T04:50:27.920Z,3.60
2022-11-12T04:53:10.371Z,3.50
2022-11-12T04:55:52.613Z,3.50
2022-11-12T04:58:34.430Z,3.50
2022-11-12T05:01:16.517Z,3.40
2022-11-12T05:03:59.049Z,3.40
2022-11-12T05:06:54.902Z,3.40
2022-11-12T05:09:37.154Z,3.40
2022-11-12T05:12:20.842Z,3.40
2022-11-12T05:15:03.191Z,3.30
2022-11-12T05:17:45.331Z,3.30
2022-11-12T05:20:27.820Z,3.30
2022-11-12T05:23:11.390Z,3.30
2022-11-12T05:25:53.650Z,3.30
2022-11-12T05:28:35.750Z,3.20
2022-11-12T05:31:17.875Z,3.20
2022-11-12T05:34:00.166Z,3.20
2022-11-12T05:36:42.304Z,3.20
2022-11-12T05:39:26.163Z,3.10
2022-11-12T05:42:13.910Z,3.20
2022-11-12T05:44:56.807Z,3.10
2022-11-12T05:47:38.802Z,3.10
2022-11-12T05:50:20.858Z,3.10
2022-11-12T05:53:02.993Z,3.00
2022-11-12T05:55:46.511Z,3.10
2022-11-12T05:58:28.610Z,3.00
2022-11-12T06:01:10.819Z,3.00
2022-11-12T06:03:53.051Z,2.90
2022-11-12T06:06:35.222Z,2.90
2022-11-12T06:09:17.257Z,2.90
2022-11-12T06:12:00.909Z,2.90
2022-11-12T06:14:42.890Z,2.90
2022-11-12T06:17:24.859Z,2.90
2022-11-12T06:20:08.329Z,2.90
2022-11-12T06:22:51.181Z,2.80
2022-11-12T06:25:33.791Z,2.80
2022-11-12T06:28:17.582Z,2.80
2022-11-12T06:30:59.537Z,2.80
2022-11-12T06:33:42.533Z,2.80
2022-11-12T06:36:24.594Z,2.80
2022-11-12T06:39:06.690Z,2.80
2022-11-12T06:41:48.856Z,2.80
2022-11-12T06:44:32.402Z,2.80
2022-11-12T06:47:14.442Z,2.80
2022-11-12T06:49:56.810Z,2.80
2022-11-12T06:52:38.981Z,2.80
2022-11-12T06:55:21.111Z,2.80
2022-11-12T06:58:03.156Z,2.80
2022-11-12T07:00:46.947Z,2.90
2022-11-12T07:03:29.190Z,2.90
2022-11-12T07:06:14.217Z,2.90
2022-11-12T07:08:56.345Z,3.00
2022-11-12T07:11:38.607Z,3.00
2022-11-12T07:14:20.713Z,3.00
2022-11-12T07:17:04.333Z,3.10
2022-11-12T07:19:46.752Z,3.10
2022-11-12T07:22:29.035Z,3.20
2022-11-12T07:25:11.222Z,3.30
2022-11-12T07:27:55.325Z,3.30
2022-11-12T07:30:37.634Z,3.40
2022-11-12T07:33:21.225Z,3.50
2022-11-12T07:36:07.151Z,3.60
2022-11-12T07:38:52.668Z,3.70
2022-11-12T07:41:34.724Z,3.80
2022-11-12T07:44:16.767Z,3.90
2022-11-12T07:46:59.002Z,4.10
2022-11-12T07:49:42.625Z,4.20
2022-11-12T07:52:25.226Z,4.40
2022-11-12T07:55:08.326Z,4.60
2022-11-12T07:57:50.320Z,4.70
2022-11-12T08:00:32.509Z,4.90
2022-11-12T08:03:15.001Z,5.00
2022-11-12T08:06:01.436Z,5.20
2022-11-12T08:08:43.470Z,5.40
2022-11-12T08:11:25.783Z,5.50
2022-11-12T08:14:07.958Z,5.60
2022-11-12T08:16:50.478Z,5.70
2022-11-12T08:19:32.853Z,5.80
2022-11-12T08:22:15.952Z,6.00
2022-11-12T08:24:58.323Z,6.10
2022-11-12T08:27:40.277Z,6.30
2022-11-12T08:30:22.026Z,6.50
2022-11-12T08:33:06.391Z,6.70
2022-11-12T08:35:48.599Z,6.90
2022-11-12T08:38:32.368Z,7.10
2022-11-12T08:41:17.728Z,7.30
2022-11-12T08:44:04.138Z,7.50
2022-11-12T08:46:49.304Z,7.60
2022-11-12T08:49:31.831Z,7.80
2022-11-12T08:52:14.212Z,8.00
2022-11-12T08:54:57.583Z,8.20
2022-11-12T08:57:42.583Z,8.30
2022-11-12T09:00:24.910Z,8.60
2022-11-12T09:03:09.842Z,9.00
2022-11-12T09:05:53.622Z,9.50
2022-11-12T09:08:38.082Z,10.00
2022-11-12T09:11:21.530Z,10.70
2022-11-12T09:14:03.301Z,11.40
2022-11-12T09:16:45.586Z,12.10
2022-11-12T09:19:27.691Z,12.60
2022-11-12T09:22:09.414Z,13.10
2022-11-12T09:24:51.618Z,13.50
2022-11-12T09:27:35.246Z,13.80
2022-11-12T09:30:17.878Z,14.10
2022-11-12T09:33:00.361Z,14.60
2022-11-12T09:35:42.806Z,14.70
2022-11-12T09:38:25.459Z,14.90
2022-11-12T09:41:21.659Z,15.30
2022-11-12T09:44:08.238Z,15.40
2022-11-12T09:46:55.557Z,15.60
2022-11-12T09:49:44.548Z,15.80
2022-11-12T09:52:29.337Z,15.80
2022-11-12T09:55:28.899Z,15.70
2022-11-12T09:58:13.518Z,15.60
2022-11-12T10:01:01.302Z,15.10
2022-11-12T10:03:55.066Z,14.90
2022-11-12T10:06:47.438Z,14.60
2022-11-12T10:09:36.665Z,14.50
2022-11-12T10:12:32.761Z,14.30
2022-11-12T10:15:57.936Z,14.20
2022-11-12T10:18:56.023Z,14.10
2022-11-12T10:21:46.379Z,14.00
2022-11-12T10:24:35.609Z,13.90
2022-11-12T10:27:22.321Z,13.80
2022-11-12T10:30:08.290Z,13.70
2022-11-12T10:32:52.050Z,13.60
2022-11-12T10:35:38.719Z,13.60
2022-11-12T10:38:27.974Z,13.50
2022-11-12T10:41:22.635Z,13.50
2022-11-12T10:44:07.563Z,13.50
2022-11-12T10:46:49.600Z,13.50
2022-11-12T10:49:31.737Z,13.40
2022-11-12T10:52:26.067Z,13.50
2022-11-12T10:55:18.007Z,13.40
2022-11-12T10:58:21.691Z,13.30
2022-11-12T11:01:07.355Z,13.40
2022-11-12T11:03:57.307Z,13.40
2022-11-12T11:06:39.769Z,13.50
2022-11-12T11:09:27.556Z,13.50
2022-11-12T11:12:24.942Z,13.60
2022-11-12T11:15:20.050Z,13.60
2022-11-12T11:18:02.793Z,13.60
2022-11-12T11:20:53.226Z,13.50
2022-11-12T11:23:43.395Z,13.40
2022-11-12T11:26:38.451Z,13.50
2022-11-12T11:29:47.559Z,13.60
2022-11-12T11:33:03.774Z,13.60
2022-11-12T11:36:00.133Z,13.60
2022-11-12T11:38:54.103Z,13.70
2022-11-12T11:41:56.014Z,13.60
2022-11-12T11:44:46.526Z,13.70
2022-11-12T11:47:59.861Z,13.70
2022-11-12T11:50:49.511Z,13.60
2022-11-12T11:53:42.650Z,13.70
2022-11-12T11:56:29.951Z,13.60
2022-11-12T11:59:31.890Z,13.50
2022-11-12T12:02:44.772Z,13.60
2022-11-12T12:05:41.020Z,13.60
2022-11-12T12:08:37.633Z,13.60
2022-11-12T12:11:29.401Z,13.60
2022-11-12T12:14:31.805Z,13.50
2022-11-12T12:17:31.923Z,13.60
2022-11-12T12:20:22.616Z,13.50
2022-11-12T12:23:12.901Z,13.50
2022-11-12T12:26:00.551Z,13.60
2022-11-12T12:28:49.464Z,13.60
2022-11-12T12:31:40.221Z,13.60
2022-11-12T12:34:27.744Z,13.60
2022-11-12T12:37:22.935Z,13.60
2022-11-12T12:40:18.763Z,13.70
2022-11-12T12:43:09.587Z,13.70
2022-11-12T12:45:51.892Z,13.70
2022-11-12T12:48:40.837Z,13.70
2022-11-12T12:51:24.338Z,13.60
2022-11-12T12:54:06.895Z,13.60
2022-11-12T12:56:49.924Z,13.60
2022-11-12T12:59:32.559Z,13.60
2022-11-12T13:02:22.621Z,13.50
2022-11-12T13:05:06.675Z,13.60
2022-11-12T13:07:50.155Z,13.50
2022-11-12T13:10:54.842Z,13.50
2022-11-12T13:13:37.932Z,13.50
2022-11-12T13:16:59.355Z,13.50
2022-11-12T13:19:47.855Z,13.50
2022-11-12T13:22:51.985Z,13.40
2022-11-12T13:25:34.619Z,13.40
2022-11-12T13:28:16.369Z,13.40
2022-11-12T13:31:04.954Z,13.40
2022-11-12T13:33:47.118Z,13.40
2022-11-12T13:36:30.630Z,13.40
2022-11-12T13:39:18.816Z,13.30
2022-11-12T13:42:18.572Z,13.30
2022-11-12T13:45:02.737Z,13.30
2022-11-12T13:47:45.203Z,13.30
2022-11-12T13:50:27.976Z,13.30
2022-11-12T13:53:11.460Z,13.30
2022-11-12T13:55:56.566Z,13.20
2022-11-12T13:58:40.827Z,13.20
2022-11-12T14:01:25.281Z,13.20
2022-11-12T14:04:08.630Z,13.20
2022-11-12T14:06:53.520Z,13.10
2022-11-12T14:09:58.202Z,13.10
2022-11-12T14:13:16.232Z,13.10
2022-11-12T14:16:19.101Z,13.00
2022-11-12T14:19:56.630Z,13.00
2022-11-12T14:22:42.530Z,12.90
2022-11-12T14:25:27.282Z,12.90
2022-11-12T14:30:58.376Z,12.80
2022-11-12T14:33:40.657Z,12.60
2022-11-12T14:36:23.615Z,12.50
2022-11-12T14:39:06.247Z,12.40
2022-11-12T14:41:49.328Z,12.40
2022-11-12T14:44:37.402Z,12.30
2022-11-12T14:47:21.218Z,12.20
2022-11-12T14:50:04.288Z,12.10
2022-11-12T14:52:50.695Z,12.00
2022-11-12T14:55:36.206Z,11.90
2022-11-12T14:58:20.379Z,11.80
2022-11-12T15:02:03.825Z,11.70
2022-11-12T15:04:28.190Z,11.60
2022-11-12T15:07:27.014Z,11.40
2022-11-12T15:10:33.298Z,11.30
2022-11-12T15:13:20.325Z,11.20
2022-11-12T15:16:08.242Z,11.10
2022-11-12T15:19:09.338Z,11.00
2022-11-12T15:21:55.022Z,10.90
2022-11-12T15:24:39.152Z,10.80
2022-11-12T15:27:39.206Z,10.70
2022-11-12T15:30:24.899Z,10.60
2022-11-12T15:33:18.864Z,10.40
2022-11-12T15:36:02.298Z,10.30
2022-11-12T15:38:50.484Z,10.20
2022-11-12T15:41:35.479Z,10.10
2022-11-12T15:44:17.446Z,10.00
2022-11-12T15:46:59.996Z,9.90
2022-11-12T15:49:52.802Z,9.80
2022-11-12T15:52:34.734Z,9.70
2022-11-12T15:55:19.338Z,9.70
2022-11-12T15:58:01.714Z,9.60
2022-11-12T16:00:44.175Z,9.50
2022-11-12T16:03:27.275Z,9.40
2022-11-12T16:06:12.410Z,9.30
2022-11-12T16:08:54.545Z,9.20
2022-11-12T16:11:38.366Z,9.10
2022-11-12T16:14:24.626Z,9.00
2022-11-12T16:17:12.231Z,9.00
2022-11-12T16:19:54.345Z,8.90
2022-11-12T16:22:36.839Z,8.80
2022-11-12T16:25:19.650Z,8.70
2022-11-12T16:28:05.115Z,8.70
2022-11-12T16:30:48.556Z,8.60
2022-11-12T16:33:30.972Z,8.50
2022-11-12T16:36:16.227Z,8.40
2022-11-12T16:38:58.766Z,8.30
2022-11-12T16:41:40.718Z,8.20
2022-11-12T16:44:24.264Z,8.20
2022-11-12T16:47:07.436Z,8.10
2022-11-12T16:49:49.322Z,8.10
2022-11-12T16:52:31.859Z,8.00
2022-11-12T16:55:14.384Z,8.00
2022-11-12T16:57:56.207Z,7.90
2022-11-12T17:00:40.397Z,7.80
2022-11-12T17:03:22.524Z,7.80
2022-11-12T17:06:05.041Z,7.70
2022-11-12T17:08:48.287Z,7.60
2022-11-12T17:11:30.582Z,7.60
2022-11-12T17:14:12.642Z,7.60
2022-11-12T17:16:56.473Z,7.50
2022-11-12T17:19:39.043Z,7.50
2022-11-12T17:22:21.650Z,7.40
2022-11-12T17:25:03.679Z,7.40
2022-11-12T17:27:45.807Z,7.30
2022-11-12T17:30:28.043Z,7.20
2022-11-12T17:33:12.004Z,7.10
2022-11-12T17:35:54.191Z,7.10
2022-11-12T17:38:36.498Z,7.10
2022-11-12T17:41:18.747Z,7.00
2022-11-12T17:44:02.533Z,7.00
2022-11-12T17:46:45.380Z,6.90
2022-11-12T17:49:29.204Z,6.90
2022-11-12T17:52:11.675Z,6.80
2022-11-12T17:54:54.323Z,6.80
2022-11-12T17:57:36.301Z,6.70
2022-11-12T18:00:19.817Z,6.70
2022-11-12T18:03:01.529Z,6.70
2022-11-12T18:05:44.982Z,6.60
2022-11-12T18:08:28.507Z,6.60
2022-11-12T18:11:11.750Z,6.50
2022-11-12T18:13:54.636Z,6.50
2022-11-12T18:16:38.286Z,6.50
2022-11-12T18:19:22.204Z,6.40
2022-11-12T18:22:07.535Z,6.40
2022-11-12T18:24:53.397Z,6.30
2022-11-12T18:27:37.369Z,6.30
2022-11-12T18:30:21.594Z,6.30
2022-11-12T18:33:04.366Z,6.20
2022-11-12T18:35:48.078Z,6.20
2022-11-12T18:38:36.310Z,6.20
2022-11-12T18:41:21.166Z,6.10
2022-11-12T18:44:03.606Z,6.00
2022-11-12T18:46:45.799Z,6.00
2022-11-12T18:49:28.313Z,6.00
2022-11-12T18:52:10.694Z,5.90
2022-11-12T18:54:54.219Z,5.80
2022-11-12T18:57:36.447Z,5.80
2022-11-12T19:00:19.552Z,5.80
2022-11-12T19:03:01.531Z,5.80
2022-11-12T19:05:44.030Z,5.80
2022-11-12T19:08:26.574Z,5.70
2022-11-12T19:11:12.920Z,5.70
2022-11-12T19:13:56.685Z,5.70
2022-11-12T19:16:42.445Z,5.60
2022-11-12T19:19:24.730Z,5.60
2022-11-12T19:22:07.148Z,5.60
2022-11-12T19:24:49.483Z,5.50
2022-11-12T19:27:33.395Z,5.50
2022-11-12T19:30:15.886Z,5.50
2022-11-12T19:32:58.091Z,5.50
2022-11-12T19:35:41.477Z,5.40
2022-11-12T19:38:23.719Z,5.40
2022-11-12T19:41:06.845Z,5.40
2022-11-12T19:43:50.927Z,5.40
2022-11-12T19:46:34.167Z,5.30
2022-11-12T19:49:16.420Z,5.30
2022-11-12T19:51:59.063Z,5.20
2022-11-12T19:54:40.996Z,5.20
2022-11-12T19:57:23.660Z,5.20
2022-11-12T20:00:10.872Z,5.20
2022-11-12T20:02:53.141Z,5.20
2022-11-12T20:05:35.342Z,5.20
2022-11-12T20:08:17.252Z,5.20
2022-11-12T20:10:59.959Z,5.20
2022-11-12T20:13:42.715Z,5.20
2022-11-12T20:16:26.491Z,5.30
2022-11-12T20:19:08.647Z,5.30
2022-11-12T20:21:50.722Z,5.30
2022-11-12T20:24:32.626Z,5.40
2022-11-12T20:27:15.198Z,5.40
2022-11-12T20:29:58.864Z,5.50
2022-11-12T20:32:43.104Z,5.50
2022-11-12T20:35:25.613Z,5.60
2022-11-12T20:38:08.126Z,5.60
2022-11-12T20:40:50.196Z,5.60
2022-11-12T20:43:32.864Z,5.60
2022-11-12T20:46:15.605Z,5.70
2022-11-12T20:48:59.283Z,5.70
2022-11-12T20:51:41.236Z,5.80
2022-11-12T20:54:23.327Z,5.80
2022-11-12T20:57:05.829Z,5.80
2022-11-12T20:59:51.204Z,5.80
2022-11-12T21:02:33.966Z,5.80
2022-11-12T21:05:17.935Z,5.80
2022-11-12T21:08:00.090Z,5.80
2022-11-12T21:10:42.439Z,5.80
2022-11-12T21:13:24.811Z,5.80
2022-11-12T21:16:08.733Z,5.80
2022-11-12T21:18:50.604Z,5.80
2022-11-12T21:21:34.463Z,5.80
2022-11-12T21:24:16.405Z,5.70
2022-11-12T21:26:58.138Z,5.70
2022-11-12T21:29:40.209Z,5.60
2022-11-12T21:32:22.749Z,5.60
2022-11-12T21:35:05.069Z,5.60
2022-11-12T21:37:48.562Z,5.50
2022-11-12T21:40:30.759Z,5.50
2022-11-12T21:43:12.841Z,5.40
2022-11-12T21:45:55.064Z,5.40
2022-11-12T21:48:37.990Z,5.40
2022-11-12T21:51:23.098Z,5.30
2022-11-12T21:54:08.965Z,5.30
2022-11-12T21:56:51.266Z,5.20
2022-11-12T21:59:33.603Z,5.20
2022-11-12T22:02:16.128Z,5.10
2022-11-12T22:04:58.282Z,5.10
2022-11-12T22:07:40.934Z,5.10
2022-11-12T22:10:24.519Z,5.00
2022-11-12T22:13:26.084Z,5.00
2022-11-12T22:16:15.266Z,5.00
2022-11-12T22:18:59.354Z,5.00
2022-11-12T22:21:42.013Z,4.90
2022-11-12T22:24:24.127Z,4.80
2022-11-12T22:27:08.018Z,4.80
2022-11-12T22:29:50.042Z,4.80
2022-11-12T22:32:33.074Z,4.80
2022-11-12T22:35:15.341Z,4.80
2022-11-12T22:37:57.476Z,4.70
2022-11-12T22:40:39.711Z,4.70
2022-11-12T22:43:24.804Z,4.70
2022-11-12T22:46:09.363Z,4.70
2022-11-12T22:48:52.006Z,4.70
2022-11-12T22:51:35.633Z,4.70
2022-11-12T22:54:18.207Z,4.70
2022-11-12T22:57:00.456Z,4.70
2022-11-12T22:59:43.846Z,4.70
2022-11-12T23:02:26.262Z,4.70
2022-11-12T23:05:09.171Z,4.70
2022-11-12T23:07:51.638Z,4.70
2022-11-12T23:10:35.196Z,4.80
2022-11-12T23:13:17.512Z,4.80
2022-11-12T23:16:01.848Z,4.90
2022-11-12T23:18:44.229Z,4.90
2022-11-12T23:21:30.517Z,5.00
2022-11-12T23:24:12.539Z,5.10
2022-11-12T23:26:54.675Z,5.10
2022-11-12T23:29:37.374Z,5.20
2022-11-12T23:32:20.974Z,5.30
2022-11-12T23:35:02.905Z,5.40
2022-11-12T23:37:44.974Z,5.40
2022-11-12T23:40:30.945Z,5.50
2022-11-12T23:43:13.614Z,5.60
2022-11-12T23:45:56.125Z,5.60
2022-11-12T23:48:39.970Z,5.70
2022-11-12T23:51:23.827Z,5.80
2022-11-12T23:54:06.462Z,5.80
2022-11-12T23:56:48.368Z,5.90
2022-11-12T23:59:30.798Z,6.00
